sensor_id;sensor_type;location;lat;lon;timestamp;pressure;altitude;pressure_sealevel;temperature;humidity
10978;BME280;5542;48.272;10.794;2023-03-31T00:01:38;95263.97;;;7.31;91.98
10978;BME280;5542;48.272;10.794;2023-03-31T00:04:07;95252.84;;;7.36;91.79
10978;BME280;5542;48.272;10.794;2023-03-31T00:06:38;95258.66;;;7.38;91.55
10978;BME280;5542;48.272;10.794;2023-03-31T00:09:07;95259.31;;;7.33;91.88
10978;BME280;5542;48.272;10.794;2023-03-31T00:11:34;95251.75;;;7.25;92.28
10978;BME280;5542;48.272;10.794;2023-03-31T00:14:02;95245.16;;;7.23;92.55
10978;BME280;5542;48.272;10.794;2023-03-31T00:16:31;95227.41;;;7.25;92.67
10978;BME280;5542;48.272;10.794;2023-03-31T00:18:58;95230.03;;;7.25;92.75
10978;BME280;5542;48.272;10.794;2023-03-31T00:21:28;95223.63;;;7.21;92.61
10978;BME280;5542;48.272;10.794;2023-03-31T00:23:59;95231.47;;;7.21;92.61
10978;BME280;5542;48.272;10.794;2023-03-31T00:26:26;95231.41;;;7.27;92.32
10978;BME280;5542;48.272;10.794;2023-03-31T00:28:53;95228.28;;;7.37;91.88
10978;BME280;5542;48.272;10.794;2023-03-31T00:31:21;95223.78;;;7.26;92.69
10978;BME280;5542;48.272;10.794;2023-03-31T00:33:48;95217.41;;;7.22;93.00
10978;BME280;5542;48.272;10.794;2023-03-31T00:36:15;95206.13;;;7.21;93.10
10978;BME280;5542;48.272;10.794;2023-03-31T00:38:46;95201.84;;;7.27;93.04
10978;BME280;5542;48.272;10.794;2023-03-31T00:41:13;95199.75;;;7.17;93.36
10978;BME280;5542;48.272;10.794;2023-03-31T00:43:40;95187.09;;;7.14;93.53
10978;BME280;5542;48.272;10.794;2023-03-31T00:46:13;95188.13;;;7.31;91.73
10978;BME280;5542;48.272;10.794;2023-03-31T00:48:44;95190.50;;;7.33;90.89
10978;BME280;5542;48.272;10.794;2023-03-31T00:51:12;95184.34;;;7.27;90.96
10978;BME280;5542;48.272;10.794;2023-03-31T00:53:40;95184.22;;;7.22;91.44
10978;BME280;5542;48.272;10.794;2023-03-31T00:56:12;95176.94;;;7.24;91.20
10978;BME280;5542;48.272;10.794;2023-03-31T00:58:41;95174.31;;;7.24;90.45
10978;BME280;5542;48.272;10.794;2023-03-31T01:01:10;95165.56;;;7.30;90.09
10978;BME280;5542;48.272;10.794;2023-03-31T01:03:40;95160.94;;;7.32;89.84
10978;BME280;5542;48.272;10.794;2023-03-31T01:06:12;95158.72;;;7.48;88.82
10978;BME280;5542;48.272;10.794;2023-03-31T01:08:44;95150.50;;;7.44;89.01
10978;BME280;5542;48.272;10.794;2023-03-31T01:11:15;95151.25;;;7.33;89.56
10978;BME280;5542;48.272;10.794;2023-03-31T01:13:43;95148.56;;;7.39;88.97
10978;BME280;5542;48.272;10.794;2023-03-31T01:16:14;95147.56;;;7.52;88.04
10978;BME280;5542;48.272;10.794;2023-03-31T01:18:41;95131.09;;;7.52;87.95
10978;BME280;5542;48.272;10.794;2023-03-31T01:24:52;95123.72;;;7.60;86.80
10978;BME280;5542;48.272;10.794;2023-03-31T01:27:37;95129.38;;;7.57;86.97
10978;BME280;5542;48.272;10.794;2023-03-31T01:30:29;95121.84;;;7.49;87.32
10978;BME280;5542;48.272;10.794;2023-03-31T01:33:15;95122.22;;;7.53;87.46
10978;BME280;5542;48.272;10.794;2023-03-31T01:36:01;95117.34;;;7.56;86.87
10978;BME280;5542;48.272;10.794;2023-03-31T01:41:48;95104.38;;;7.73;86.30
10978;BME280;5542;48.272;10.794;2023-03-31T01:44:25;95105.66;;;7.82;85.77
10978;BME280;5542;48.272;10.794;2023-03-31T01:46:57;95093.91;;;7.73;86.04
10978;BME280;5542;48.272;10.794;2023-03-31T01:49:31;95088.66;;;7.73;86.14
10978;BME280;5542;48.272;10.794;2023-03-31T01:52:03;95088.66;;;7.61;86.26
10978;BME280;5542;48.272;10.794;2023-03-31T01:54:37;95088.66;;;7.73;86.39
10978;BME280;5542;48.272;10.794;2023-03-31T01:57:12;95087.53;;;7.69;86.12
10978;BME280;5542;48.272;10.794;2023-03-31T01:59:45;95091.19;;;7.80;85.51
10978;BME280;5542;48.272;10.794;2023-03-31T02:02:18;95091.66;;;7.77;85.81
10978;BME280;5542;48.272;10.794;2023-03-31T02:04:47;95089.94;;;7.82;85.90
10978;BME280;5542;48.272;10.794;2023-03-31T02:07:19;95091.19;;;7.80;86.35
10978;BME280;5542;48.272;10.794;2023-03-31T02:09:49;95090.66;;;7.89;85.95
10978;BME280;5542;48.272;10.794;2023-03-31T02:12:21;95081.66;;;7.85;85.81
10978;BME280;5542;48.272;10.794;2023-03-31T02:14:52;95082.88;;;7.71;86.72
10978;BME280;5542;48.272;10.794;2023-03-31T02:17:22;95078.09;;;7.68;87.05
10978;BME280;5542;48.272;10.794;2023-03-31T02:19:58;95078.56;;;7.65;87.63
10978;BME280;5542;48.272;10.794;2023-03-31T02:22:30;95072.88;;;7.80;87.27
10978;BME280;5542;48.272;10.794;2023-03-31T02:25:00;95061.03;;;7.77;87.24
10978;BME280;5542;48.272;10.794;2023-03-31T02:27:31;95064.13;;;7.74;87.16
10978;BME280;5542;48.272;10.794;2023-03-31T02:29:58;95064.66;;;7.76;87.56
10978;BME280;5542;48.272;10.794;2023-03-31T02:32:29;95069.56;;;7.96;86.95
10978;BME280;5542;48.272;10.794;2023-03-31T02:34:58;95073.09;;;8.02;86.64
10978;BME280;5542;48.272;10.794;2023-03-31T02:37:26;95084.59;;;8.01;87.73
10978;BME280;5542;48.272;10.794;2023-03-31T02:39:56;95092.91;;;7.86;88.92
10978;BME280;5542;48.272;10.794;2023-03-31T02:42:23;95092.66;;;7.76;90.33
10978;BME280;5542;48.272;10.794;2023-03-31T02:44:51;95092.13;;;7.85;91.34
10978;BME280;5542;48.272;10.794;2023-03-31T02:47:20;95095.09;;;7.89;91.94
10978;BME280;5542;48.272;10.794;2023-03-31T02:49:49;95086.88;;;7.85;92.94
10978;BME280;5542;48.272;10.794;2023-03-31T02:52:34;95077.78;;;8.11;93.09
10978;BME280;5542;48.272;10.794;2023-03-31T02:55:13;95068.56;;;8.09;94.16
10978;BME280;5542;48.272;10.794;2023-03-31T03:00:51;95091.53;;;8.07;94.98
10978;BME280;5542;48.272;10.794;2023-03-31T03:03:28;95107.97;;;8.37;94.41
10978;BME280;5542;48.272;10.794;2023-03-31T03:06:05;95102.84;;;8.42;95.16
10978;BME280;5542;48.272;10.794;2023-03-31T03:09:00;95099.78;;;8.45;95.19
10978;BME280;5542;48.272;10.794;2023-03-31T03:11:35;95093.72;;;8.45;95.18
10978;BME280;5542;48.272;10.794;2023-03-31T03:14:08;95073.31;;;8.35;96.50
10978;BME280;5542;48.272;10.794;2023-03-31T03:16:42;95068.31;;;8.34;97.43
10978;BME280;5542;48.272;10.794;2023-03-31T03:19:17;95068.53;;;8.56;97.12
10978;BME280;5542;48.272;10.794;2023-03-31T03:21:44;95061.03;;;8.48;96.95
10978;BME280;5542;48.272;10.794;2023-03-31T03:24:12;95049.41;;;8.43;97.52
10978;BME280;5542;48.272;10.794;2023-03-31T03:26:39;95046.69;;;8.50;97.72
10978;BME280;5542;48.272;10.794;2023-03-31T03:29:05;95042.34;;;8.56;97.48
10978;BME280;5542;48.272;10.794;2023-03-31T03:31:32;95031.50;;;8.52;97.96
10978;BME280;5542;48.272;10.794;2023-03-31T03:34:00;95021.97;;;8.46;98.75
10978;BME280;5542;48.272;10.794;2023-03-31T03:36:27;95020.03;;;8.41;99.69
10978;BME280;5542;48.272;10.794;2023-03-31T03:38:53;95010.00;;;8.38;99.98
10978;BME280;5542;48.272;10.794;2023-03-31T03:41:20;95012.16;;;8.30;100.00
10978;BME280;5542;48.272;10.794;2023-03-31T03:43:47;95015.00;;;8.28;100.00
10978;BME280;5542;48.272;10.794;2023-03-31T03:46:13;95006.47;;;8.33;100.00
10978;BME280;5542;48.272;10.794;2023-03-31T03:48:40;94995.75;;;8.34;100.00
10978;BME280;5542;48.272;10.794;2023-03-31T03:51:08;94977.88;;;8.43;100.00
10978;BME280;5542;48.272;10.794;2023-03-31T03:53:35;94965.88;;;8.35;100.00
10978;BME280;5542;48.272;10.794;2023-03-31T03:56:01;94969.13;;;8.37;100.00
10978;BME280;5542;48.272;10.794;2023-03-31T03:58:28;94967.13;;;8.44;100.00
10978;BME280;5542;48.272;10.794;2023-03-31T04:00:55;94950.63;;;8.44;100.00
10978;BME280;5542;48.272;10.794;2023-03-31T04:03:22;94957.16;;;8.41;100.00
10978;BME280;5542;48.272;10.794;2023-03-31T04:05:48;94948.25;;;8.42;100.00
10978;BME280;5542;48.272;10.794;2023-03-31T04:08:17;94945.88;;;8.41;100.00
10978;BME280;5542;48.272;10.794;2023-03-31T04:10:44;94941.88;;;8.38;100.00
10978;BME280;5542;48.272;10.794;2023-03-31T04:13:13;94935.47;;;8.34;100.00
10978;BME280;5542;48.272;10.794;2023-03-31T04:15:40;94912.38;;;8.31;100.00
10978;BME280;5542;48.272;10.794;2023-03-31T04:18:07;94915.22;;;8.30;100.00
10978;BME280;5542;48.272;10.794;2023-03-31T04:20:35;94913.09;;;8.27;100.00
10978;BME280;5542;48.272;10.794;2023-03-31T04:23:02;94912.28;;;8.26;100.00
10978;BME280;5542;48.272;10.794;2023-03-31T04:25:31;94875.28;;;8.23;100.00
10978;BME280;5542;48.272;10.794;2023-03-31T04:27:57;94866.38;;;8.24;100.00
10978;BME280;5542;48.272;10.794;2023-03-31T04:30:25;94885.59;;;8.29;100.00
10978;BME280;5542;48.272;10.794;2023-03-31T04:32:56;94874.69;;;8.32;100.00
10978;BME280;5542;48.272;10.794;2023-03-31T04:35:25;94859.50;;;8.34;100.00
10978;BME280;5542;48.272;10.794;2023-03-31T04:38:02;94844.38;;;8.36;100.00
10978;BME280;5542;48.272;10.794;2023-03-31T04:40:30;94842.06;;;8.40;100.00
10978;BME280;5542;48.272;10.794;2023-03-31T04:42:59;94843.16;;;8.27;100.00
10978;BME280;5542;48.272;10.794;2023-03-31T04:45:26;94839.81;;;8.32;100.00
10978;BME280;5542;48.272;10.794;2023-03-31T04:47:52;94833.13;;;8.24;100.00
10978;BME280;5542;48.272;10.794;2023-03-31T04:50:19;94834.94;;;8.24;100.00
10978;BME280;5542;48.272;10.794;2023-03-31T04:52:45;94819.41;;;8.17;100.00
10978;BME280;5542;48.272;10.794;2023-03-31T04:55:12;94811.72;;;8.27;100.00
10978;BME280;5542;48.272;10.794;2023-03-31T04:57:40;94804.22;;;8.19;100.00
10978;BME280;5542;48.272;10.794;2023-03-31T05:00:08;94801.59;;;8.19;100.00
10978;BME280;5542;48.272;10.794;2023-03-31T05:02:35;94798.44;;;8.17;100.00
10978;BME280;5542;48.272;10.794;2023-03-31T05:05:02;94788.75;;;8.17;100.00
10978;BME280;5542;48.272;10.794;2023-03-31T05:07:29;94787.00;;;8.23;100.00
10978;BME280;5542;48.272;10.794;2023-03-31T05:09:55;94777.31;;;8.24;100.00
10978;BME280;5542;48.272;10.794;2023-03-31T05:12:22;94763.78;;;8.27;100.00
10978;BME280;5542;48.272;10.794;2023-03-31T05:14:51;94741.19;;;8.26;100.00
10978;BME280;5542;48.272;10.794;2023-03-31T05:17:18;94737.88;;;8.13;100.00
10978;BME280;5542;48.272;10.794;2023-03-31T05:19:44;94724.78;;;8.13;100.00
10978;BME280;5542;48.272;10.794;2023-03-31T05:22:11;94710.66;;;8.14;100.00
10978;BME280;5542;48.272;10.794;2023-03-31T05:24:37;94702.78;;;8.14;100.00
10978;BME280;5542;48.272;10.794;2023-03-31T05:27:04;94696.28;;;8.17;100.00
10978;BME280;5542;48.272;10.794;2023-03-31T05:29:31;94693.97;;;8.20;100.00
10978;BME280;5542;48.272;10.794;2023-03-31T05:31:59;94684.06;;;8.23;100.00
10978;BME280;5542;48.272;10.794;2023-03-31T05:34:25;94674.38;;;8.23;100.00
10978;BME280;5542;48.272;10.794;2023-03-31T05:36:52;94669.69;;;8.25;100.00
10978;BME280;5542;48.272;10.794;2023-03-31T05:39:19;94657.94;;;8.28;100.00
10978;BME280;5542;48.272;10.794;2023-03-31T05:41:46;94654.53;;;8.27;100.00
10978;BME280;5542;48.272;10.794;2023-03-31T05:44:13;94643.88;;;8.34;100.00
10978;BME280;5542;48.272;10.794;2023-03-31T05:46:39;94639.31;;;8.41;100.00
10978;BME280;5542;48.272;10.794;2023-03-31T05:49:08;94628.84;;;8.41;100.00
10978;BME280;5542;48.272;10.794;2023-03-31T05:51:35;94629.06;;;8.39;100.00
10978;BME280;5542;48.272;10.794;2023-03-31T05:54:02;94623.09;;;8.44;100.00
10978;BME280;5542;48.272;10.794;2023-03-31T05:56:30;94622.56;;;8.42;100.00
10978;BME280;5542;48.272;10.794;2023-03-31T05:58:58;94631.75;;;8.44;100.00
10978;BME280;5542;48.272;10.794;2023-03-31T06:01:25;94639.13;;;8.48;100.00
10978;BME280;5542;48.272;10.794;2023-03-31T06:03:51;94632.06;;;8.48;100.00
10978;BME280;5542;48.272;10.794;2023-03-31T06:06:19;94638.66;;;8.51;100.00
10978;BME280;5542;48.272;10.794;2023-03-31T06:08:47;94629.09;;;8.61;100.00
10978;BME280;5542;48.272;10.794;2023-03-31T06:11:15;94633.88;;;8.64;100.00
10978;BME280;5542;48.272;10.794;2023-03-31T06:13:43;94634.66;;;8.65;100.00
10978;BME280;5542;48.272;10.794;2023-03-31T06:16:11;94628.84;;;8.63;100.00
10978;BME280;5542;48.272;10.794;2023-03-31T06:18:38;94640.44;;;8.67;100.00
10978;BME280;5542;48.272;10.794;2023-03-31T06:21:05;94638.06;;;8.65;100.00
10978;BME280;5542;48.272;10.794;2023-03-31T06:23:34;94631.72;;;8.61;100.00
10978;BME280;5542;48.272;10.794;2023-03-31T06:26:01;94643.00;;;8.62;100.00
10978;BME280;5542;48.272;10.794;2023-03-31T06:28:29;94662.38;;;8.61;100.00
10978;BME280;5542;48.272;10.794;2023-03-31T06:31:00;94665.78;;;8.61;100.00
10978;BME280;5542;48.272;10.794;2023-03-31T06:33:27;94662.13;;;8.62;100.00
10978;BME280;5542;48.272;10.794;2023-03-31T06:35:54;94655.63;;;8.65;100.00
10978;BME280;5542;48.272;10.794;2023-03-31T06:38:22;94688.66;;;8.66;100.00
10978;BME280;5542;48.272;10.794;2023-03-31T06:40:50;94690.00;;;8.68;100.00
10978;BME280;5542;48.272;10.794;2023-03-31T06:43:17;94687.22;;;8.75;99.78
10978;BME280;5542;48.272;10.794;2023-03-31T06:45:43;94686.44;;;8.75;100.00
10978;BME280;5542;48.272;10.794;2023-03-31T06:48:10;94676.47;;;8.77;99.66
10978;BME280;5542;48.272;10.794;2023-03-31T06:50:39;94672.88;;;8.83;99.76
10978;BME280;5542;48.272;10.794;2023-03-31T06:53:05;94682.75;;;8.76;99.74
10978;BME280;5542;48.272;10.794;2023-03-31T06:55:32;94685.06;;;8.72;100.00
10978;BME280;5542;48.272;10.794;2023-03-31T06:58:00;94688.47;;;8.72;100.00
10978;BME280;5542;48.272;10.794;2023-03-31T07:00:27;94698.75;;;8.74;100.00
10978;BME280;5542;48.272;10.794;2023-03-31T07:02:54;94705.31;;;8.77;100.00
10978;BME280;5542;48.272;10.794;2023-03-31T07:05:21;94704.22;;;8.72;100.00
10978;BME280;5542;48.272;10.794;2023-03-31T07:07:51;94726.69;;;8.85;100.00
10978;BME280;5542;48.272;10.794;2023-03-31T07:10:18;94706.16;;;8.82;100.00
10978;BME280;5542;48.272;10.794;2023-03-31T07:12:45;94668.47;;;8.83;100.00
10978;BME280;5542;48.272;10.794;2023-03-31T07:15:13;94662.50;;;8.71;100.00
10978;BME280;5542;48.272;10.794;2023-03-31T07:17:40;94647.25;;;8.68;100.00
10978;BME280;5542;48.272;10.794;2023-03-31T07:20:08;94615.72;;;8.80;100.00
10978;BME280;5542;48.272;10.794;2023-03-31T07:22:36;94617.88;;;8.66;100.00
10978;BME280;5542;48.272;10.794;2023-03-31T07:25:03;94599.06;;;8.69;100.00
10978;BME280;5542;48.272;10.794;2023-03-31T07:27:30;94593.81;;;8.69;100.00
10978;BME280;5542;48.272;10.794;2023-03-31T07:29:57;94579.22;;;8.78;100.00
10978;BME280;5542;48.272;10.794;2023-03-31T07:32:25;94571.44;;;8.83;100.00
10978;BME280;5542;48.272;10.794;2023-03-31T07:34:51;94569.78;;;8.99;100.00
10978;BME280;5542;48.272;10.794;2023-03-31T07:37:18;94554.03;;;8.99;100.00
10978;BME280;5542;48.272;10.794;2023-03-31T07:39:44;94564.31;;;9.06;100.00
10978;BME280;5542;48.272;10.794;2023-03-31T07:42:11;94557.50;;;9.05;100.00
10978;BME280;5542;48.272;10.794;2023-03-31T07:44:37;94547.81;;;9.05;100.00
10978;BME280;5542;48.272;10.794;2023-03-31T07:47:04;94542.56;;;9.05;100.00
10978;BME280;5542;48.272;10.794;2023-03-31T07:49:33;94536.47;;;9.27;100.00
10978;BME280;5542;48.272;10.794;2023-03-31T07:52:00;94541.41;;;9.50;100.00
10978;BME280;5542;48.272;10.794;2023-03-31T07:54:27;94531.16;;;9.48;100.00
10978;BME280;5542;48.272;10.794;2023-03-31T07:56:54;94549.00;;;9.46;100.00
10978;BME280;5542;48.272;10.794;2023-03-31T07:59:20;94521.03;;;9.62;100.00
10978;BME280;5542;48.272;10.794;2023-03-31T08:01:47;94524.28;;;9.74;100.00
10978;BME280;5542;48.272;10.794;2023-03-31T08:04:13;94514.88;;;9.84;100.00
10978;BME280;5542;48.272;10.794;2023-03-31T08:06:41;94506.31;;;9.98;100.00
10978;BME280;5542;48.272;10.794;2023-03-31T08:09:08;94516.13;;;10.13;100.00
10978;BME280;5542;48.272;10.794;2023-03-31T08:11:34;94537.94;;;10.19;100.00
10978;BME280;5542;48.272;10.794;2023-03-31T08:14:01;94577.59;;;10.12;99.06
10978;BME280;5542;48.272;10.794;2023-03-31T08:16:27;94607.69;;;9.99;99.57
10978;BME280;5542;48.272;10.794;2023-03-31T08:18:54;94630.81;;;9.97;98.12
10978;BME280;5542;48.272;10.794;2023-03-31T08:21:21;94653.09;;;9.95;97.12
10978;BME280;5542;48.272;10.794;2023-03-31T08:23:49;94677.34;;;10.02;96.05
10978;BME280;5542;48.272;10.794;2023-03-31T08:26:18;94675.03;;;10.11;95.48
10978;BME280;5542;48.272;10.794;2023-03-31T08:28:46;94704.22;;;10.14;95.10
10978;BME280;5542;48.272;10.794;2023-03-31T08:31:13;94720.13;;;9.97;96.92
10978;BME280;5542;48.272;10.794;2023-03-31T08:33:41;94626.94;;;10.10;94.66
10978;BME280;5542;48.272;10.794;2023-03-31T08:36:08;94641.63;;;10.06;92.85
10978;BME280;5542;48.272;10.794;2023-03-31T08:38:35;94625.69;;;10.18;93.28
10978;BME280;5542;48.272;10.794;2023-03-31T08:41:05;94620.13;;;10.09;93.63
10978;BME280;5542;48.272;10.794;2023-03-31T08:43:38;94597.75;;;10.39;90.86
10978;BME280;5542;48.272;10.794;2023-03-31T08:46:09;94579.53;;;10.27;92.45
10978;BME280;5542;48.272;10.794;2023-03-31T08:48:39;94573.00;;;10.35;92.64
10978;BME280;5542;48.272;10.794;2023-03-31T08:51:13;94586.50;;;10.48;91.86
10978;BME280;5542;48.272;10.794;2023-03-31T08:53:44;94587.91;;;10.71;97.45
10978;BME280;5542;48.272;10.794;2023-03-31T08:56:18;94565.22;;;11.43;89.19
10978;BME280;5542;48.272;10.794;2023-03-31T08:58:48;94570.53;;;11.74;86.59
10978;BME280;5542;48.272;10.794;2023-03-31T09:01:22;94555.53;;;12.10;81.13
10978;BME280;5542;48.272;10.794;2023-03-31T09:04:06;94562.13;;;12.13;78.92
10978;BME280;5542;48.272;10.794;2023-03-31T09:06:38;94559.50;;;11.97;81.45
10978;BME280;5542;48.272;10.794;2023-03-31T09:09:10;94568.13;;;12.34;78.15
10978;BME280;5542;48.272;10.794;2023-03-31T09:11:48;94570.53;;;12.20;78.10
10978;BME280;5542;48.272;10.794;2023-03-31T09:14:30;94570.81;;;12.13;77.75
10978;BME280;5542;48.272;10.794;2023-03-31T09:17:06;94550.00;;;11.91;78.59
10978;BME280;5542;48.272;10.794;2023-03-31T09:19:40;94550.00;;;11.86;79.35
10978;BME280;5542;48.272;10.794;2023-03-31T09:22:13;94546.34;;;11.92;81.36
10978;BME280;5542;48.272;10.794;2023-03-31T09:24:51;94552.09;;;12.20;83.03
10978;BME280;5542;48.272;10.794;2023-03-31T09:27:23;94533.44;;;12.81;80.55
10978;BME280;5542;48.272;10.794;2023-03-31T09:29:56;94542.41;;;13.40;78.64
10978;BME280;5542;48.272;10.794;2023-03-31T09:32:27;94543.81;;;13.95;74.49
10978;BME280;5542;48.272;10.794;2023-03-31T09:34:56;94538.50;;;14.29;73.33
10978;BME280;5542;48.272;10.794;2023-03-31T09:37:29;94544.09;;;14.76;71.87
10978;BME280;5542;48.272;10.794;2023-03-31T09:39:58;94539.69;;;14.90;69.55
10978;BME280;5542;48.272;10.794;2023-03-31T09:42:27;94548.44;;;14.67;68.41
10978;BME280;5542;48.272;10.794;2023-03-31T09:44:53;94542.34;;;14.66;71.30
10978;BME280;5542;48.272;10.794;2023-03-31T09:47:28;94531.63;;;15.00;67.61
10978;BME280;5542;48.272;10.794;2023-03-31T09:49:57;94526.84;;;15.40;65.65
10978;BME280;5542;48.272;10.794;2023-03-31T09:52:28;94528.00;;;15.34;62.22
10978;BME280;5542;48.272;10.794;2023-03-31T09:54:58;94527.00;;;15.30;64.11
10978;BME280;5542;48.272;10.794;2023-03-31T09:57:29;94507.22;;;15.22;60.92
10978;BME280;5542;48.272;10.794;2023-03-31T10:00:01;94506.44;;;15.22;61.81
10978;BME280;5542;48.272;10.794;2023-03-31T10:02:34;94510.50;;;15.52;62.59
10978;BME280;5542;48.272;10.794;2023-03-31T10:05:02;94485.94;;;15.65;58.59
10978;BME280;5542;48.272;10.794;2023-03-31T10:07:30;94483.72;;;15.53;58.08
10978;BME280;5542;48.272;10.794;2023-03-31T10:09:56;94490.84;;;15.39;60.60
10978;BME280;5542;48.272;10.794;2023-03-31T10:12:28;94477.53;;;15.44;58.03
10978;BME280;5542;48.272;10.794;2023-03-31T10:15:10;94479.56;;;15.47;58.23
10978;BME280;5542;48.272;10.794;2023-03-31T10:17:43;94466.03;;;15.68;55.18
10978;BME280;5542;48.272;10.794;2023-03-31T10:20:19;94477.81;;;15.75;59.16
10978;BME280;5542;48.272;10.794;2023-03-31T10:22:46;94460.94;;;15.52;53.59
10978;BME280;5542;48.272;10.794;2023-03-31T10:25:16;94451.03;;;15.44;55.26
10978;BME280;5542;48.272;10.794;2023-03-31T10:27:46;94441.56;;;15.38;52.50
10978;BME280;5542;48.272;10.794;2023-03-31T10:30:18;94437.75;;;15.11;54.08
10978;BME280;5542;48.272;10.794;2023-03-31T10:32:46;94439.44;;;15.21;56.10
10978;BME280;5542;48.272;10.794;2023-03-31T10:35:21;94428.84;;;15.40;53.66
10978;BME280;5542;48.272;10.794;2023-03-31T10:37:50;94425.88;;;15.42;54.79
10978;BME280;5542;48.272;10.794;2023-03-31T10:40:21;94425.91;;;15.23;54.19
10978;BME280;5542;48.272;10.794;2023-03-31T10:42:58;94434.47;;;15.01;55.54
10978;BME280;5542;48.272;10.794;2023-03-31T10:45:28;94406.34;;;15.05;53.66
10978;BME280;5542;48.272;10.794;2023-03-31T10:47:57;94416.41;;;15.03;54.72
10978;BME280;5542;48.272;10.794;2023-03-31T10:50:29;94424.06;;;15.04;53.64
10978;BME280;5542;48.272;10.794;2023-03-31T10:53:09;94420.94;;;14.65;51.90
10978;BME280;5542;48.272;10.794;2023-03-31T10:55:42;94413.34;;;14.34;53.84
10978;BME280;5542;48.272;10.794;2023-03-31T10:58:22;94418.31;;;14.17;52.74
10978;BME280;5542;48.272;10.794;2023-03-31T11:01:05;94436.22;;;14.01;55.04
10978;BME280;5542;48.272;10.794;2023-03-31T11:04:00;94445.91;;;13.81;54.40
10978;BME280;5542;48.272;10.794;2023-03-31T11:06:33;94423.66;;;13.58;56.43
10978;BME280;5542;48.272;10.794;2023-03-31T11:09:14;94428.84;;;13.69;57.58
10978;BME280;5542;48.272;10.794;2023-03-31T11:11:52;94410.81;;;13.76;58.54
10978;BME280;5542;48.272;10.794;2023-03-31T11:14:32;94392.53;;;13.79;59.66
10978;BME280;5542;48.272;10.794;2023-03-31T11:17:06;94384.84;;;13.83;60.70
10978;BME280;5542;48.272;10.794;2023-03-31T11:19:43;94402.22;;;13.89;60.82
10978;BME280;5542;48.272;10.794;2023-03-31T11:22:15;94402.09;;;13.99;60.97
10978;BME280;5542;48.272;10.794;2023-03-31T11:25:11;94364.72;;;14.11;57.61
10978;BME280;5542;48.272;10.794;2023-03-31T11:30:34;94356.69;;;13.97;57.34
10978;BME280;5542;48.272;10.794;2023-03-31T11:33:23;94355.00;;;13.82;57.74
10978;BME280;5542;48.272;10.794;2023-03-31T11:36:05;94351.31;;;14.02;57.15
10978;BME280;5542;48.272;10.794;2023-03-31T11:38:47;94342.66;;;14.21;58.76
10978;BME280;5542;48.272;10.794;2023-03-31T11:41:19;94335.84;;;14.15;54.26
10978;BME280;5542;48.272;10.794;2023-03-31T11:43:47;94324.06;;;14.26;53.51
10978;BME280;5542;48.272;10.794;2023-03-31T11:46:18;94322.84;;;14.37;56.19
10978;BME280;5542;48.272;10.794;2023-03-31T11:48:51;94326.00;;;14.39;55.39
10978;BME280;5542;48.272;10.794;2023-03-31T11:51:23;94314.94;;;14.56;53.33
10978;BME280;5542;48.272;10.794;2023-03-31T11:53:52;94306.06;;;14.66;51.81
10978;BME280;5542;48.272;10.794;2023-03-31T11:56:21;94297.22;;;14.56;51.49
10978;BME280;5542;48.272;10.794;2023-03-31T11:58:51;94305.44;;;14.55;51.89
10978;BME280;5542;48.272;10.794;2023-03-31T12:01:24;94319.75;;;14.54;50.47
10978;BME280;5542;48.272;10.794;2023-03-31T12:03:58;94303.56;;;14.55;50.94
10978;BME280;5542;48.272;10.794;2023-03-31T12:06:29;94296.63;;;14.59;51.54
10978;BME280;5542;48.272;10.794;2023-03-31T12:09:11;94296.00;;;14.68;49.70
10978;BME280;5542;48.272;10.794;2023-03-31T12:11:43;94298.25;;;14.74;49.88
10978;BME280;5542;48.272;10.794;2023-03-31T12:14:24;94303.19;;;14.81;50.02
10978;BME280;5542;48.272;10.794;2023-03-31T12:16:55;94290.47;;;14.83;47.83
10978;BME280;5542;48.272;10.794;2023-03-31T12:19:27;94284.03;;;14.70;48.95
10978;BME280;5542;48.272;10.794;2023-03-31T12:21:59;94289.41;;;14.65;49.46
10978;BME280;5542;48.272;10.794;2023-03-31T12:24:29;94297.88;;;14.67;50.27
10978;BME280;5542;48.272;10.794;2023-03-31T12:27:03;94296.78;;;14.68;49.52
10978;BME280;5542;48.272;10.794;2023-03-31T12:29:35;94308.47;;;14.48;50.31
10978;BME280;5542;48.272;10.794;2023-03-31T12:32:09;94313.19;;;14.27;51.31
10978;BME280;5542;48.272;10.794;2023-03-31T12:34:43;94323.91;;;14.17;52.85
10978;BME280;5542;48.272;10.794;2023-03-31T12:37:41;94325.72;;;14.22;53.53
10978;BME280;5542;48.272;10.794;2023-03-31T12:40:20;94320.97;;;14.19;53.96
10978;BME280;5542;48.272;10.794;2023-03-31T12:43:15;94316.22;;;14.40;55.14
10978;BME280;5542;48.272;10.794;2023-03-31T12:45:52;94321.72;;;14.24;53.85
10978;BME280;5542;48.272;10.794;2023-03-31T12:48:37;94328.09;;;13.99;54.73
10978;BME280;5542;48.272;10.794;2023-03-31T12:51:37;94353.81;;;13.70;55.93
10978;BME280;5542;48.272;10.794;2023-03-31T12:54:19;94349.66;;;13.64;59.01
10978;BME280;5542;48.272;10.794;2023-03-31T12:57:02;94363.44;;;13.31;60.86
10978;BME280;5542;48.272;10.794;2023-03-31T12:59:32;94349.50;;;13.21;63.21
10978;BME280;5542;48.272;10.794;2023-03-31T13:02:22;94365.84;;;12.89;63.88
10978;BME280;5542;48.272;10.794;2023-03-31T13:04:51;94366.59;;;12.60;64.62
10978;BME280;5542;48.272;10.794;2023-03-31T13:07:38;94393.50;;;12.57;66.06
10978;BME280;5542;48.272;10.794;2023-03-31T13:10:25;94416.81;;;12.35;68.04
10978;BME280;5542;48.272;10.794;2023-03-31T13:12:59;94429.28;;;12.14;69.86
10978;BME280;5542;48.272;10.794;2023-03-31T13:15:26;94392.16;;;12.00;69.56
10978;BME280;5542;48.272;10.794;2023-03-31T13:17:56;94410.09;;;12.03;68.30
10978;BME280;5542;48.272;10.794;2023-03-31T13:20:31;94419.34;;;11.90;71.07
10978;BME280;5542;48.272;10.794;2023-03-31T13:23:03;94412.00;;;11.82;70.66
10978;BME280;5542;48.272;10.794;2023-03-31T13:25:48;94412.50;;;11.84;71.51
10978;BME280;5542;48.272;10.794;2023-03-31T13:28:33;94390.88;;;11.97;70.60
10978;BME280;5542;48.272;10.794;2023-03-31T13:31:01;94391.31;;;12.15;72.26
10978;BME280;5542;48.272;10.794;2023-03-31T13:33:31;94382.16;;;12.56;71.25
10978;BME280;5542;48.272;10.794;2023-03-31T13:38:42;94356.78;;;12.66;64.98